This is the latest recevied weather packets stored in our database for station/object VK2EHQ. If no packets are shown the sender has not sent any weather packets the latest 1 day(s).
| Time | Temp. | Humidity | Pressure | Rain* | Wind** | Luminosity | Snow |
|---|---|---|---|---|---|---|---|
| 1778100244 | 11.11° C | 77% | 1014.6 hPa | 0 mm | - | - | - |
| 1778093043 | 11.67° C | 80% | 1013.7 hPa | 0 mm | - | - | - |
| 1778090643 | 12.22° C | 82% | 1013.8 hPa | 0 mm | - | - | - |
| 1778085842 | 12.78° C | 80% | 1014.3 hPa | 0 mm | - | - | - |
| 1778085242 | 13.33° C | 79% | 1014.4 hPa | 0 mm | - | - | - |
| 1778084643 | 13.33° C | 79% | 1014.6 hPa | 0 mm | - | - | - |
| 1778084042 | 13.89° C | 79% | 1014.6 hPa | 0 mm | - | - | - |
| 1778082842 | 13.89° C | 79% | 1014.7 hPa | 0 mm | - | - | - |
| 1778076841 | 14.44° C | 80% | 1015.4 hPa | 0 mm | - | - | - |
| 1778075641 | 14.44° C | 80% | 1015.6 hPa | 0 mm | - | - | - |
| 1778075041 | 14.44° C | 80% | 1015.6 hPa | 0 mm | - | - | - |
| 1778074441 | 14.44° C | 80% | 1015.6 hPa | 0 mm | - | - | - |
| 1778073841 | 14.44° C | 80% | 1015.6 hPa | 0 mm | - | - | - |
| 1778072040 | 15° C | 81% | 1015.9 hPa | 0 mm | - | - | - |
| 1778031298 | 18.33° C | 70% | 1020.3 hPa | 0 mm | - | - | - |
| 1778030698 | 17.78° C | 71% | 1020.5 hPa | 0 mm | - | - | - |
| 1778030098 | 17.22° C | 71% | 1020.7 hPa | 0 mm | - | - | - |
| 1778029499 | 16.67° C | 71% | 1020.8 hPa | 0 mm | - | - | - |
| 1778028297 | 16.11° C | 72% | 1020.9 hPa | 0 mm | - | - | - |
| 1778027697 | 16.11° C | 72% | 1021.1 hPa | 0 mm | - | - | - |
| 1778027097 | 15.56° C | 71% | 1021.1 hPa | 0 mm | - | - | - |
| 1778026497 | 15.56° C | 72% | 1021.1 hPa | 0 mm | - | - | - |
| 1778022897 | 13.89° C | 75% | 1021.3 hPa | 0 mm | - | - | - |
| 1778022299 | 13.33° C | 75% | 1021.3 hPa | 0 mm | - | - | - |
| 1778021097 | 13.89° C | 74% | 1021.3 hPa | 0 mm | - | - | - |
* Rain latest hour (hover to see other rain measurements)
** Current wind speed in m/s (hover to see current wind gust speed)